PWSweather.com
Personal Weather Stations
Station Observations
WESTON01
WestonSuperMareGB BS22 8RT

WestonSuperMareGB BS22 8RT

Lat: 51.351508, Lon: -2.933373

Elevation: 15

Station Type: Fine Offset WH1080

http://www.westonweather.co.uk

Latest ConditionsUpdated 9:55:00 AM GMT Thursday, Jul 18, 2019
Currently Today's Max Today's Min Today's Average
Temperature 62.5°F16.9°C 62.5°F16.9°C 59.1°F15.1°C 60.5°F15.8°C
Dew Point 53.7°F12.1°C 58.2°F14.6°C 51.7°F10.9°C 55.0°F12.8°C
Winds 5.8 mph W9.3 kmh W 8.7 mph -14.0 kmh - - 5.2 mph 8.4 kmh
Wind Gusts 9.5 mph15.3 kmh 14.3 mph23.0 kmh - -
Humidity 73% 90% 69% 82%
Pressure 29.82 in1009.8 mb 29.82 in1009.8 mb 29.76 in1007.8 mb -
Precipitation - 0.08 in2.0 mm - -
Hour Temp Dew Point Humidity Winds Wind Gusts Pressure Precip Precip Rate Daily Precip Total
09:55 AM 62.5°F16.9°C 53.7°F12.1°C 73% 5.8 mph W9.3 kmh W 9.5 mph15.3 kmh 29.82 in1009.8 mb 0.00 in0.0 mm 0.00 in0.0 mm 0.08 in2.0 mm
09:50 AM 62.5°F16.9°C 54.1°F12.3°C 74% 5.8 mph WNW9.3 kmh WNW 9.5 mph15.3 kmh 29.82 in1009.8 mb 0.00 in0.0 mm 0.00 in0.0 mm 0.08 in2.0 mm
09:45 AM 62.5°F16.9°C 54.1°F12.3°C 74% 6.6 mph WNW10.6 kmh WNW 9.8 mph15.8 kmh 29.82 in1009.8 mb 0.00 in0.0 mm 0.00 in0.0 mm 0.08 in2.0 mm
09:40 AM 62.3°F16.8°C 54.3°F12.4°C 75% 5.9 mph WNW9.5 kmh WNW 9.8 mph15.8 kmh 29.82 in1009.8 mb 0.00 in0.0 mm 0.00 in0.0 mm 0.08 in2.0 mm
09:35 AM 62.2°F16.8°C 54.1°F12.3°C 75% 4.9 mph WNW7.9 kmh WNW 8.6 mph13.8 kmh 29.82 in1009.8 mb 0.00 in0.0 mm 0.00 in0.0 mm 0.08 in2.0 mm
09:30 AM 61.8°F16.6°C 53.8°F12.1°C 75% 5.6 mph WNW9.0 kmh WNW 8.6 mph13.8 kmh 29.82 in1009.8 mb 0.00 in0.0 mm 0.00 in0.0 mm 0.08 in2.0 mm
09:25 AM 61.6°F16.4°C 53.6°F12.0°C 75% 5.3 mph W8.5 kmh W 8.6 mph13.8 kmh 29.82 in1009.8 mb 0.00 in0.0 mm 0.00 in0.0 mm 0.08 in2.0 mm
09:20 AM 61.4°F16.3°C 53.4°F11.9°C 75% 5.8 mph W9.3 kmh W 9.8 mph15.8 kmh 29.82 in1009.8 mb 0.00 in0.0 mm 0.00 in0.0 mm 0.08 in2.0 mm
09:15 AM 61.3°F16.3°C 53.3°F11.8°C 75% 6.8 mph W10.9 kmh W 14.3 mph23.0 kmh 29.82 in1009.8 mb 0.00 in0.0 mm 0.00 in0.0 mm 0.08 in2.0 mm
09:10 AM 61.1°F16.2°C 53.1°F11.7°C 75% 7.3 mph W11.7 kmh W 14.3 mph23.0 kmh 29.82 in1009.8 mb 0.00 in0.0 mm 0.00 in0.0 mm 0.08 in2.0 mm
09:05 AM 61.1°F16.2°C 53.4°F11.9°C 76% 8.6 mph W13.8 kmh W 14.3 mph23.0 kmh 29.82 in1009.8 mb 0.00 in0.0 mm 0.00 in0.0 mm 0.08 in2.0 mm
09:00 AM 61.1°F16.2°C 53.4°F11.9°C 76% 8.2 mph W13.2 kmh W 11.9 mph19.2 kmh 29.82 in1009.8 mb 0.00 in0.0 mm 0.00 in0.0 mm 0.08 in2.0 mm
08:55 AM 61.1°F16.2°C 53.4°F11.9°C 76% 7.7 mph W12.4 kmh W 10.7 mph17.2 kmh 29.82 in1009.8 mb 0.00 in0.0 mm 0.00 in0.0 mm 0.08 in2.0 mm
08:50 AM 61.1°F16.2°C 53.4°F11.9°C 76% 7.9 mph W12.7 kmh W 13.4 mph21.6 kmh 29.82 in1009.8 mb 0.00 in0.0 mm 0.00 in0.0 mm 0.08 in2.0 mm
08:45 AM 60.9°F16.1°C 53.6°F12.0°C 77% 8.2 mph W13.2 kmh W 13.4 mph21.6 kmh 29.82 in1009.8 mb 0.00 in0.0 mm 0.00 in0.0 mm 0.08 in2.0 mm
08:40 AM 60.9°F16.1°C 53.6°F12.0°C 77% 7.6 mph WNW12.2 kmh WNW 10.7 mph17.2 kmh 29.79 in1008.8 mb 0.00 in0.0 mm 0.00 in0.0 mm 0.08 in2.0 mm
08:35 AM 60.7°F15.9°C 53.5°F11.9°C 77% 6.7 mph WNW10.8 kmh WNW 10.7 mph17.2 kmh 29.79 in1008.8 mb 0.00 in0.0 mm 0.00 in0.0 mm 0.08 in2.0 mm
08:30 AM 60.7°F15.9°C 53.5°F11.9°C 77% 6.7 mph WNW10.8 kmh WNW 10.1 mph16.3 kmh 29.79 in1008.8 mb 0.00 in0.0 mm 0.00 in0.0 mm 0.08 in2.0 mm
08:25 AM 60.5°F15.8°C 53.6°F12.0°C 78% 6.7 mph W10.8 kmh W 10.1 mph16.3 kmh 29.79 in1008.8 mb 0.00 in0.0 mm 0.00 in0.0 mm 0.08 in2.0 mm
08:20 AM 60.3°F15.7°C 53.5°F11.9°C 78% 7.0 mph WNW11.3 kmh WNW 11.6 mph18.7 kmh 29.79 in1008.8 mb 0.00 in0.0 mm 0.00 in0.0 mm 0.08 in2.0 mm
08:15 AM 60.3°F15.7°C 53.5°F11.9°C 78% 6.9 mph NW11.1 kmh NW 11.6 mph18.7 kmh 29.79 in1008.8 mb 0.00 in0.0 mm 0.00 in0.0 mm 0.08 in2.0 mm
08:10 AM 60.2°F15.7°C 53.6°F12.0°C 79% 6.4 mph NW10.3 kmh NW 10.1 mph16.3 kmh 29.79 in1008.8 mb 0.00 in0.0 mm 0.00 in0.0 mm 0.08 in2.0 mm
08:05 AM 60.3°F15.7°C 53.8°F12.1°C 79% 7.2 mph WNW11.6 kmh WNW 9.8 mph15.8 kmh 29.79 in1008.8 mb 0.00 in0.0 mm 0.00 in0.0 mm 0.08 in2.0 mm
08:00 AM 60.2°F15.7°C 53.6°F12.0°C 79% 7.4 mph WNW11.9 kmh WNW 13.7 mph22.0 kmh 29.79 in1008.8 mb 0.00 in0.0 mm 0.00 in0.0 mm 0.08 in2.0 mm
07:55 AM 60.3°F15.7°C 54.2°F12.3°C 80% 6.8 mph W10.9 kmh W 13.7 mph22.0 kmh 29.79 in1008.8 mb 0.00 in0.0 mm 0.00 in0.0 mm 0.08 in2.0 mm
07:50 AM 60.3°F15.7°C 54.2°F12.3°C 80% 7.8 mph W12.6 kmh W 10.7 mph17.2 kmh 29.79 in1008.8 mb 0.00 in0.0 mm 0.00 in0.0 mm 0.08 in2.0 mm
07:45 AM 60.5°F15.8°C 54.3°F12.4°C 80% 8.1 mph W13.0 kmh W 10.4 mph16.7 kmh 29.79 in1008.8 mb 0.00 in0.0 mm 0.00 in0.0 mm 0.08 in2.0 mm
07:40 AM 60.5°F15.8°C 54.3°F12.4°C 80% 8.4 mph W13.5 kmh W 13.4 mph21.6 kmh 29.79 in1008.8 mb 0.00 in0.0 mm 0.00 in0.0 mm 0.08 in2.0 mm
07:35 AM 60.7°F15.9°C 54.8°F12.7°C 81% 7.4 mph W11.9 kmh W 13.4 mph21.6 kmh 29.79 in1008.8 mb 0.00 in0.0 mm 0.00 in0.0 mm 0.08 in2.0 mm
07:30 AM 60.9°F16.1°C 55.0°F12.8°C 81% 6.6 mph WNW10.6 kmh WNW 11.3 mph18.2 kmh 29.79 in1008.8 mb 0.00 in0.0 mm 0.00 in0.0 mm 0.08 in2.0 mm
07:25 AM 60.9°F16.1°C 55.0°F12.8°C 81% 7.0 mph WNW11.3 kmh WNW 12.8 mph20.6 kmh 29.79 in1008.8 mb 0.00 in0.0 mm 0.00 in0.0 mm 0.08 in2.0 mm
07:20 AM 60.9°F16.1°C 55.0°F12.8°C 81% 7.7 mph W12.4 kmh W 12.8 mph20.6 kmh 29.79 in1008.8 mb 0.00 in0.0 mm 0.00 in0.0 mm 0.08 in2.0 mm
07:15 AM 61.1°F16.2°C 55.5°F13.1°C 82% 8.0 mph W12.9 kmh W 11.6 mph18.7 kmh 29.79 in1008.8 mb 0.00 in0.0 mm 0.00 in0.0 mm 0.08 in2.0 mm
07:10 AM 60.9°F16.1°C 55.4°F13.0°C 82% 8.0 mph W12.9 kmh W 13.4 mph21.6 kmh 29.79 in1008.8 mb 0.00 in0.0 mm 0.00 in0.0 mm 0.08 in2.0 mm
07:05 AM 60.9°F16.1°C 55.4°F13.0°C 82% 8.7 mph W14.0 kmh W 13.4 mph21.6 kmh 29.79 in1008.8 mb 0.00 in0.0 mm 0.00 in0.0 mm 0.08 in2.0 mm
07:00 AM 60.9°F16.1°C 55.7°F13.2°C 83% 6.6 mph W10.6 kmh W 13.4 mph21.6 kmh 29.79 in1008.8 mb 0.00 in0.0 mm 0.00 in0.0 mm 0.08 in2.0 mm
06:55 AM 60.9°F16.1°C 55.7°F13.2°C 83% 6.2 mph W10.0 kmh W 10.1 mph16.3 kmh 29.79 in1008.8 mb 0.00 in0.0 mm 0.00 in0.0 mm 0.08 in2.0 mm
06:50 AM 60.7°F15.9°C 55.5°F13.1°C 83% 7.0 mph WSW11.3 kmh WSW 10.7 mph17.2 kmh 29.79 in1008.8 mb 0.00 in0.0 mm 0.00 in0.0 mm 0.08 in2.0 mm
06:45 AM 60.7°F15.9°C 55.5°F13.1°C 83% 6.7 mph W10.8 kmh W 10.7 mph17.2 kmh 29.79 in1008.8 mb 0.00 in0.0 mm 0.00 in0.0 mm 0.08 in2.0 mm
06:40 AM 60.5°F15.8°C 55.3°F12.9°C 83% 7.2 mph WNW11.6 kmh WNW 10.7 mph17.2 kmh 29.79 in1008.8 mb 0.00 in0.0 mm 0.00 in0.0 mm 0.08 in2.0 mm
06:35 AM 60.5°F15.8°C 55.7°F13.2°C 84% 8.2 mph W13.2 kmh W 11.3 mph18.2 kmh 29.79 in1008.8 mb 0.00 in0.0 mm 0.00 in0.0 mm 0.08 in2.0 mm
06:30 AM 60.5°F15.8°C 55.7°F13.2°C 84% 8.4 mph WSW13.5 kmh WSW 11.3 mph18.2 kmh 29.79 in1008.8 mb 0.00 in0.0 mm 0.00 in0.0 mm 0.08 in2.0 mm
06:25 AM 60.5°F15.8°C 56.0°F13.3°C 85% 6.9 mph WSW11.1 kmh WSW 11.3 mph18.2 kmh 29.76 in1007.8 mb 0.00 in0.0 mm 0.00 in0.0 mm 0.08 in2.0 mm
06:20 AM 60.5°F15.8°C 56.0°F13.3°C 85% 5.4 mph W8.7 kmh W 7.7 mph12.4 kmh 29.76 in1007.8 mb 0.00 in0.0 mm 0.00 in0.0 mm 0.08 in2.0 mm
06:15 AM 60.5°F15.8°C 56.3°F13.5°C 86% 4.5 mph W7.2 kmh W 4.8 mph7.7 kmh 29.76 in1007.8 mb 0.00 in0.0 mm 0.00 in0.0 mm 0.08 in2.0 mm
06:10 AM 60.5°F15.8°C 56.3°F13.5°C 86% 4.6 mph W7.4 kmh W 4.8 mph7.7 kmh 29.76 in1007.8 mb 0.00 in0.0 mm 0.00 in0.0 mm 0.08 in2.0 mm
06:05 AM 60.5°F15.8°C 56.6°F13.7°C 87% 4.8 mph WSW7.7 kmh WSW 4.8 mph7.7 kmh 29.76 in1007.8 mb 0.00 in0.0 mm 0.00 in0.0 mm 0.08 in2.0 mm
06:00 AM 60.5°F15.8°C 56.6°F13.7°C 87% 5.3 mph WNW8.5 kmh WNW 7.4 mph11.9 kmh 29.76 in1007.8 mb 0.00 in0.0 mm 0.00 in0.0 mm 0.08 in2.0 mm
05:55 AM 60.5°F15.8°C 56.6°F13.7°C 87% 5.7 mph WNW9.2 kmh WNW 7.4 mph11.9 kmh 29.76 in1007.8 mb 0.00 in0.0 mm 0.00 in0.0 mm 0.08 in2.0 mm
05:50 AM 60.5°F15.8°C 56.6°F13.7°C 87% 6.0 mph WNW9.7 kmh WNW 7.4 mph11.9 kmh 29.76 in1007.8 mb 0.00 in0.0 mm 0.00 in0.0 mm 0.08 in2.0 mm
05:45 AM 60.5°F15.8°C 56.6°F13.7°C 87% 6.4 mph W10.3 kmh W 7.4 mph11.9 kmh 29.76 in1007.8 mb 0.00 in0.0 mm 0.00 in0.0 mm 0.08 in2.0 mm
05:40 AM 60.5°F15.8°C 57.0°F13.9°C 88% 5.8 mph NW9.3 kmh NW 7.4 mph11.9 kmh 29.76 in1007.8 mb 0.00 in0.0 mm 0.00 in0.0 mm 0.08 in2.0 mm
05:35 AM 60.7°F15.9°C 57.1°F13.9°C 88% 5.5 mph NW8.9 kmh NW 6.5 mph10.5 kmh 29.76 in1007.8 mb 0.00 in0.0 mm 0.00 in0.0 mm 0.08 in2.0 mm
05:30 AM 60.7°F15.9°C 57.1°F13.9°C 88% 7.5 mph NW12.1 kmh NW 11.6 mph18.7 kmh 29.76 in1007.8 mb 0.00 in0.0 mm 0.00 in0.0 mm 0.08 in2.0 mm
05:25 AM 61.1°F16.2°C 57.8°F14.3°C 89% 6.7 mph NW10.8 kmh NW 11.6 mph18.7 kmh 29.76 in1007.8 mb 0.00 in0.0 mm 0.00 in0.0 mm 0.08 in2.0 mm
05:20 AM 61.3°F16.3°C 58.0°F14.4°C 89% 6.9 mph W11.1 kmh W 12.2 mph19.6 kmh 29.76 in1007.8 mb 0.00 in0.0 mm 0.00 in0.0 mm 0.08 in2.0 mm
05:15 AM 61.3°F16.3°C 58.0°F14.4°C 89% 7.8 mph W12.6 kmh W 12.2 mph19.6 kmh 29.76 in1007.8 mb 0.00 in0.0 mm 0.00 in0.0 mm 0.08 in2.0 mm
05:10 AM 61.3°F16.3°C 58.0°F14.4°C 89% 7.4 mph W11.9 kmh W 11.6 mph18.7 kmh 29.76 in1007.8 mb 0.00 in0.0 mm 0.00 in0.0 mm 0.08 in2.0 mm
05:05 AM 61.3°F16.3°C 58.0°F14.4°C 89% 7.3 mph W11.7 kmh W 12.8 mph20.6 kmh 29.76 in1007.8 mb 0.00 in0.0 mm 0.00 in0.0 mm 0.08 in2.0 mm
05:00 AM 61.4°F16.3°C 58.2°F14.6°C 89% 8.0 mph W12.9 kmh W 12.8 mph20.6 kmh 29.76 in1007.8 mb 0.00 in0.0 mm 0.00 in0.0 mm 0.08 in2.0 mm
04:55 AM 61.3°F16.3°C 58.0°F14.4°C 89% 7.6 mph W12.2 kmh W 10.7 mph17.2 kmh 29.76 in1007.8 mb 0.00 in0.0 mm 0.00 in0.0 mm 0.08 in2.0 mm
04:50 AM 61.3°F16.3°C 58.0°F14.4°C 89% 7.4 mph W11.9 kmh W 10.4 mph16.7 kmh 29.76 in1007.8 mb 0.00 in0.0 mm 0.00 in0.0 mm 0.08 in2.0 mm
04:45 AM 61.1°F16.2°C 57.8°F14.3°C 89% 7.5 mph WSW12.1 kmh WSW 9.5 mph15.3 kmh 29.76 in1007.8 mb 0.00 in0.0 mm 0.00 in0.0 mm 0.08 in2.0 mm
04:40 AM 61.1°F16.2°C 57.8°F14.3°C 89% 6.5 mph WSW10.5 kmh WSW 10.1 mph16.3 kmh 29.76 in1007.8 mb 0.00 in0.0 mm 0.00 in0.0 mm 0.08 in2.0 mm
04:35 AM 61.1°F16.2°C 57.8°F14.3°C 89% 6.0 mph W9.7 kmh W 10.1 mph16.3 kmh 29.76 in1007.8 mb 0.00 in0.0 mm 0.00 in0.0 mm 0.08 in2.0 mm
04:25 AM 60.9°F16.1°C 57.6°F14.2°C 89% 6.5 mph W10.5 kmh W 11.3 mph18.2 kmh 29.76 in1007.8 mb 0.00 in0.0 mm 0.00 in0.0 mm 0.08 in2.0 mm
04:20 AM 60.9°F16.1°C 57.6°F14.2°C 89% 6.8 mph W10.9 kmh W 11.3 mph18.2 kmh 29.76 in1007.8 mb 0.00 in0.0 mm 0.00 in0.0 mm 0.08 in2.0 mm
04:15 AM 60.9°F16.1°C 57.6°F14.2°C 89% 7.1 mph W11.4 kmh W 11.3 mph18.2 kmh 29.76 in1007.8 mb 0.00 in0.0 mm 0.00 in0.0 mm 0.08 in2.0 mm
04:10 AM 60.7°F15.9°C 57.4°F14.1°C 89% 5.8 mph W9.3 kmh W 10.1 mph16.3 kmh 29.76 in1007.8 mb 0.00 in0.0 mm 0.00 in0.0 mm 0.08 in2.0 mm
04:05 AM 60.5°F15.8°C 57.3°F14.1°C 89% 4.8 mph W7.7 kmh W 7.1 mph11.4 kmh 29.76 in1007.8 mb 0.00 in0.0 mm 0.00 in0.0 mm 0.08 in2.0 mm
04:00 AM 60.3°F15.7°C 57.4°F14.1°C 90% 3.2 mph WSW5.1 kmh WSW 5.7 mph9.2 kmh 29.76 in1007.8 mb 0.00 in0.0 mm 0.00 in0.0 mm 0.08 in2.0 mm
03:55 AM 60.2°F15.7°C 56.9°F13.8°C 89% 2.2 mph WSW3.5 kmh WSW 4.5 mph7.2 kmh 29.76 in1007.8 mb 0.00 in0.0 mm 0.00 in0.0 mm 0.08 in2.0 mm
03:50 AM 60.0°F15.6°C 56.7°F13.7°C 89% 3.1 mph W5.0 kmh W 4.8 mph7.7 kmh 29.76 in1007.8 mb 0.00 in0.0 mm 0.00 in0.0 mm 0.08 in2.0 mm
03:45 AM 60.0°F15.6°C 56.7°F13.7°C 89% 3.2 mph WSW5.1 kmh WSW 4.8 mph7.7 kmh 29.76 in1007.8 mb 0.00 in0.0 mm 0.00 in0.0 mm 0.08 in2.0 mm
03:40 AM 60.0°F15.6°C 56.7°F13.7°C 89% 2.2 mph WSW3.5 kmh WSW 4.2 mph6.8 kmh 29.76 in1007.8 mb 0.00 in0.0 mm 0.00 in0.0 mm 0.08 in2.0 mm
03:35 AM 59.8°F15.4°C 56.6°F13.7°C 89% 2.2 mph WSW3.5 kmh WSW 4.2 mph6.8 kmh 29.76 in1007.8 mb 0.00 in0.0 mm 0.00 in0.0 mm 0.08 in2.0 mm
03:30 AM 59.8°F15.4°C 56.6°F13.7°C 89% 3.1 mph WSW5.0 kmh WSW 4.8 mph7.7 kmh 29.76 in1007.8 mb 0.00 in0.0 mm 0.00 in0.0 mm 0.08 in2.0 mm
03:25 AM 59.8°F15.4°C 56.2°F13.4°C 88% 3.3 mph WSW5.3 kmh WSW 4.8 mph7.7 kmh 29.76 in1007.8 mb 0.04 in1.0 mm 0.00 in0.0 mm 0.08 in2.0 mm
03:20 AM 59.6°F15.3°C 56.1°F13.4°C 88% 2.8 mph WSW4.5 kmh WSW 4.5 mph7.2 kmh 29.76 in1007.8 mb 0.04 in1.0 mm 0.00 in0.0 mm 0.08 in2.0 mm
03:15 AM 59.6°F15.3°C 56.1°F13.4°C 88% 2.4 mph WSW3.9 kmh WSW 6.0 mph9.7 kmh 29.76 in1007.8 mb 0.04 in1.0 mm 0.00 in0.0 mm 0.08 in2.0 mm
03:10 AM 59.5°F15.3°C 55.9°F13.3°C 88% 1.8 mph WSW2.9 kmh WSW 6.0 mph9.7 kmh 29.76 in1007.8 mb 0.04 in1.0 mm 0.00 in0.0 mm 0.08 in2.0 mm
03:05 AM 59.5°F15.3°C 55.9°F13.3°C 88% 2.1 mph SSW3.4 kmh SSW 3.6 mph5.8 kmh 29.76 in1007.8 mb 0.04 in1.0 mm 0.00 in0.0 mm 0.08 in2.0 mm
03:00 AM 59.5°F15.3°C 55.9°F13.3°C 88% 1.8 mph SSW2.9 kmh SSW 3.6 mph5.8 kmh 29.76 in1007.8 mb 0.04 in1.0 mm 0.00 in0.0 mm 0.08 in2.0 mm
02:55 AM 59.5°F15.3°C 55.9°F13.3°C 88% 1.5 mph SW2.4 kmh SW 5.1 mph8.2 kmh 29.76 in1007.8 mb 0.04 in1.0 mm 0.00 in0.0 mm 0.08 in2.0 mm
02:50 AM 59.5°F15.3°C 55.6°F13.1°C 87% 2.0 mph WSW3.2 kmh WSW 5.1 mph8.2 kmh 29.76 in1007.8 mb 0.04 in1.0 mm 0.00 in0.0 mm 0.08 in2.0 mm
02:45 AM 59.5°F15.3°C 55.6°F13.1°C 87% 2.1 mph WSW3.4 kmh WSW 3.9 mph6.3 kmh 29.76 in1007.8 mb 0.04 in1.0 mm 0.00 in0.0 mm 0.08 in2.0 mm
02:40 AM 59.3°F15.2°C 55.4°F13.0°C 87% 2.3 mph SW3.7 kmh SW 4.5 mph7.2 kmh 29.76 in1007.8 mb 0.04 in1.0 mm 0.00 in0.0 mm 0.08 in2.0 mm
02:35 AM 59.3°F15.2°C 55.1°F12.8°C 86% 2.0 mph SW3.2 kmh SW 4.5 mph7.2 kmh 29.76 in1007.8 mb 0.08 in2.0 mm 0.00 in0.0 mm 0.08 in2.0 mm
02:30 AM 59.3°F15.2°C 55.1°F12.8°C 86% 1.8 mph SW2.9 kmh SW 3.6 mph5.8 kmh 29.76 in1007.8 mb 0.08 in2.0 mm 0.48 in12.2 mm 0.08 in2.0 mm
02:25 AM 59.3°F15.2°C 55.1°F12.8°C 86% 1.6 mph SW2.6 kmh SW 3.6 mph5.8 kmh 29.76 in1007.8 mb 0.04 in1.0 mm 0.00 in0.0 mm 0.04 in1.0 mm
02:20 AM 59.1°F15.1°C 54.6°F12.6°C 85% 1.0 mph WSW1.6 kmh WSW 2.7 mph4.3 kmh 29.76 in1007.8 mb 0.04 in1.0 mm 0.00 in0.0 mm 0.04 in1.0 mm
02:15 AM 59.1°F15.1°C 54.6°F12.6°C 85% 0.8 mph WSW1.3 kmh WSW 2.7 mph4.3 kmh 29.76 in1007.8 mb 0.04 in1.0 mm 0.00 in0.0 mm 0.04 in1.0 mm
02:10 AM 59.1°F15.1°C 54.3°F12.4°C 84% 0.9 mph SW1.4 kmh SW 3.3 mph5.3 kmh 29.76 in1007.8 mb 0.04 in1.0 mm 0.00 in0.0 mm 0.04 in1.0 mm
02:05 AM 59.1°F15.1°C 54.3°F12.4°C 84% 1.8 mph SW2.9 kmh SW 3.6 mph5.8 kmh 29.76 in1007.8 mb 0.04 in1.0 mm 0.00 in0.0 mm 0.04 in1.0 mm
02:00 AM 59.1°F15.1°C 54.3°F12.4°C 84% 3.4 mph SW5.5 kmh SW 6.2 mph10.0 kmh 29.76 in1007.8 mb 0.04 in1.0 mm 0.00 in0.0 mm 0.04 in1.0 mm
01:55 AM 59.1°F15.1°C 53.9°F12.2°C 83% 3.9 mph SW6.3 kmh SW 6.2 mph10.0 kmh 29.76 in1007.8 mb 0.04 in1.0 mm 0.00 in0.0 mm 0.04 in1.0 mm
01:50 AM 59.3°F15.2°C 54.1°F12.3°C 83% 3.3 mph SW5.3 kmh SW 5.7 mph9.2 kmh 29.76 in1007.8 mb 0.04 in1.0 mm 0.00 in0.0 mm 0.04 in1.0 mm
01:45 AM 59.3°F15.2°C 54.1°F12.3°C 83% 2.5 mph SW4.0 kmh SW 5.1 mph8.2 kmh 29.76 in1007.8 mb 0.04 in1.0 mm 0.00 in0.0 mm 0.04 in1.0 mm
01:40 AM 59.3°F15.2°C 53.8°F12.1°C 82% 2.5 mph SW4.0 kmh SW 4.8 mph7.7 kmh 29.79 in1008.8 mb 0.04 in1.0 mm 0.48 in12.2 mm 0.04 in1.0 mm
01:35 AM 59.3°F15.2°C 53.8°F12.1°C 82% 2.8 mph SW4.5 kmh SW 4.8 mph7.7 kmh 29.79 in1008.8 mb 0.00 in0.0 mm 0.00 in0.0 mm 0.00 in0.0 mm
01:30 AM 59.5°F15.3°C 54.0°F12.2°C 82% 2.9 mph SSW4.7 kmh SSW 4.5 mph7.2 kmh 29.79 in1008.8 mb 0.00 in0.0 mm 0.00 in0.0 mm 0.00 in0.0 mm
01:25 AM 59.5°F15.3°C 53.6°F12.0°C 81% 2.8 mph SW4.5 kmh SW 4.5 mph7.2 kmh 29.76 in1007.8 mb 0.00 in0.0 mm 0.00 in0.0 mm 0.00 in0.0 mm
01:20 AM 59.6°F15.3°C 53.5°F11.9°C 80% 3.1 mph SW5.0 kmh SW 4.5 mph7.2 kmh 29.76 in1007.8 mb 0.00 in0.0 mm 0.00 in0.0 mm 0.00 in0.0 mm
01:15 AM 59.6°F15.3°C 53.1°F11.7°C 79% 3.7 mph SW6.0 kmh SW 4.8 mph7.7 kmh 29.76 in1007.8 mb 0.00 in0.0 mm 0.00 in0.0 mm 0.00 in0.0 mm
01:10 AM 59.8°F15.4°C 52.9°F11.6°C 78% 3.9 mph SSW6.3 kmh SSW 5.4 mph8.7 kmh 29.79 in1008.8 mb 0.00 in0.0 mm 0.00 in0.0 mm 0.00 in0.0 mm
01:05 AM 60.0°F15.6°C 53.1°F11.7°C 78% 3.8 mph SSW6.1 kmh SSW 5.4 mph8.7 kmh 29.79 in1008.8 mb 0.00 in0.0 mm 0.00 in0.0 mm 0.00 in0.0 mm
01:00 AM 60.2°F15.7°C 52.9°F11.6°C 77% 3.7 mph SSW6.0 kmh SSW 5.4 mph8.7 kmh 29.79 in1008.8 mb 0.00 in0.0 mm 0.00 in0.0 mm 0.00 in0.0 mm
12:55 AM 60.2°F15.7°C 52.9°F11.6°C 77% 3.0 mph S4.8 kmh S 6.5 mph10.5 kmh 29.79 in1008.8 mb 0.00 in0.0 mm 0.00 in0.0 mm 0.00 in0.0 mm
12:50 AM 60.3°F15.7°C 52.7°F11.5°C 76% 2.5 mph SSW4.0 kmh SSW 6.5 mph10.5 kmh 29.79 in1008.8 mb 0.00 in0.0 mm 0.00 in0.0 mm 0.00 in0.0 mm
12:45 AM 60.5°F15.8°C 52.6°F11.4°C 75% 2.5 mph SW4.0 kmh SW 5.4 mph8.7 kmh 29.79 in1008.8 mb 0.00 in0.0 mm 0.00 in0.0 mm 0.00 in0.0 mm
12:40 AM 60.5°F15.8°C 52.2°F11.2°C 74% 4.0 mph SW6.4 kmh SW 9.2 mph14.8 kmh 29.79 in1008.8 mb 0.00 in0.0 mm 0.00 in0.0 mm 0.00 in0.0 mm
12:35 AM 60.7°F15.9°C 52.4°F11.3°C 74% 4.6 mph SSW7.4 kmh SSW 9.2 mph14.8 kmh 29.79 in1008.8 mb 0.00 in0.0 mm 0.00 in0.0 mm 0.00 in0.0 mm
12:30 AM 61.3°F16.3°C 52.1°F11.2°C 72% 4.3 mph SW6.9 kmh SW 7.4 mph11.9 kmh 29.79 in1008.8 mb 0.00 in0.0 mm 0.00 in0.0 mm 0.00 in0.0 mm
12:25 AM 61.3°F16.3°C 52.1°F11.2°C 72% 3.8 mph SW6.1 kmh SW 7.1 mph11.4 kmh 29.79 in1008.8 mb 0.00 in0.0 mm 0.00 in0.0 mm 0.00 in0.0 mm
12:20 AM 61.3°F16.3°C 52.1°F11.2°C 72% 3.0 mph SW4.8 kmh SW 6.5 mph10.5 kmh 29.79 in1008.8 mb 0.00 in0.0 mm 0.00 in0.0 mm 0.00 in0.0 mm
12:15 AM 61.4°F16.3°C 51.9°F11.1°C 71% 3.9 mph S6.3 kmh S 5.7 mph9.2 kmh 29.79 in1008.8 mb 0.00 in0.0 mm 0.00 in0.0 mm 0.00 in0.0 mm
12:10 AM 61.4°F16.3°C 51.9°F11.1°C 71% 4.1 mph S6.6 kmh S 5.7 mph9.2 kmh 29.79 in1008.8 mb 0.00 in0.0 mm 0.00 in0.0 mm 0.00 in0.0 mm
12:05 AM 61.6°F16.4°C 51.7°F10.9°C 70% 4.0 mph SSW6.4 kmh SSW 5.1 mph8.2 kmh 29.79 in1008.8 mb 0.00 in0.0 mm 0.00 in0.0 mm 0.00 in0.0 mm
12:00 AM 62.0°F16.7°C 51.7°F10.9°C 69% 3.5 mph SW5.6 kmh SW 5.1 mph8.2 kmh 29.79 in1008.8 mb 0.00 in0.0 mm 0.00 in0.0 mm 0.00 in0.0 mm